sensor_id;sensor_type;location;lat;lon;timestamp;P1;durP1;ratioP1;P2;durP2;ratioP2
7971;SDS011;4031;49.758;6.120;2023-03-19T00:02:25;6.57;;;5.87;;
7971;SDS011;4031;49.758;6.120;2023-03-19T00:04:51;8.00;;;7.20;;
7971;SDS011;4031;49.758;6.120;2023-03-19T00:07:16;9.70;;;7.33;;
7971;SDS011;4031;49.758;6.120;2023-03-19T00:09:43;8.83;;;7.87;;
7971;SDS011;4031;49.758;6.120;2023-03-19T00:12:09;8.93;;;8.03;;
7971;SDS011;4031;49.758;6.120;2023-03-19T00:14:36;7.60;;;6.73;;
7971;SDS011;4031;49.758;6.120;2023-03-19T00:17:02;8.03;;;7.07;;
7971;SDS011;4031;49.758;6.120;2023-03-19T00:19:27;9.13;;;8.30;;
7971;SDS011;4031;49.758;6.120;2023-03-19T00:21:53;8.40;;;7.60;;
7971;SDS011;4031;49.758;6.120;2023-03-19T00:24:20;8.90;;;7.63;;
7971;SDS011;4031;49.758;6.120;2023-03-19T00:26:45;8.73;;;6.80;;
7971;SDS011;4031;49.758;6.120;2023-03-19T00:29:11;8.93;;;8.03;;
7971;SDS011;4031;49.758;6.120;2023-03-19T00:31:38;9.73;;;6.90;;
7971;SDS011;4031;49.758;6.120;2023-03-19T00:34:05;11.43;;;6.80;;
7971;SDS011;4031;49.758;6.120;2023-03-19T00:36:32;8.10;;;6.90;;
7971;SDS011;4031;49.758;6.120;2023-03-19T00:38:58;8.13;;;7.40;;
7971;SDS011;4031;49.758;6.120;2023-03-19T00:41:23;8.77;;;6.77;;
7971;SDS011;4031;49.758;6.120;2023-03-19T00:43:52;9.70;;;7.23;;
7971;SDS011;4031;49.758;6.120;2023-03-19T00:46:22;7.90;;;7.10;;
7971;SDS011;4031;49.758;6.120;2023-03-19T00:48:49;13.43;;;7.10;;
7971;SDS011;4031;49.758;6.120;2023-03-19T00:51:19;7.20;;;6.37;;
7971;SDS011;4031;49.758;6.120;2023-03-19T00:53:46;7.57;;;6.87;;
7971;SDS011;4031;49.758;6.120;2023-03-19T00:56:12;9.00;;;7.10;;
7971;SDS011;4031;49.758;6.120;2023-03-19T00:58:39;8.23;;;6.93;;
7971;SDS011;4031;49.758;6.120;2023-03-19T01:01:05;8.60;;;7.40;;
7971;SDS011;4031;49.758;6.120;2023-03-19T01:03:32;9.37;;;7.60;;
7971;SDS011;4031;49.758;6.120;2023-03-19T01:05:58;7.80;;;7.10;;
7971;SDS011;4031;49.758;6.120;2023-03-19T01:08:24;8.03;;;6.73;;
7971;SDS011;4031;49.758;6.120;2023-03-19T01:10:51;8.20;;;7.37;;
7971;SDS011;4031;49.758;6.120;2023-03-19T01:13:16;10.33;;;8.00;;
7971;SDS011;4031;49.758;6.120;2023-03-19T01:15:42;8.63;;;6.70;;
7971;SDS011;4031;49.758;6.120;2023-03-19T01:18:09;9.03;;;7.73;;
7971;SDS011;4031;49.758;6.120;2023-03-19T01:20:36;8.40;;;7.10;;
7971;SDS011;4031;49.758;6.120;2023-03-19T01:23:04;9.37;;;7.27;;
7971;SDS011;4031;49.758;6.120;2023-03-19T01:25:30;9.50;;;7.53;;
7971;SDS011;4031;49.758;6.120;2023-03-19T01:27:57;9.43;;;7.83;;
7971;SDS011;4031;49.758;6.120;2023-03-19T01:30:22;7.50;;;6.80;;
7971;SDS011;4031;49.758;6.120;2023-03-19T01:32:49;8.50;;;7.53;;
7971;SDS011;4031;49.758;6.120;2023-03-19T01:35:15;8.67;;;6.40;;
7971;SDS011;4031;49.758;6.120;2023-03-19T01:37:41;7.00;;;6.20;;
7971;SDS011;4031;49.758;6.120;2023-03-19T01:40:09;8.53;;;6.83;;
7971;SDS011;4031;49.758;6.120;2023-03-19T01:42:50;6.90;;;6.20;;
7971;SDS011;4031;49.758;6.120;2023-03-19T01:45:31;8.80;;;7.20;;
7971;SDS011;4031;49.758;6.120;2023-03-19T01:48:00;8.50;;;7.23;;
7971;SDS011;4031;49.758;6.120;2023-03-19T01:50:30;8.17;;;6.40;;
7971;SDS011;4031;49.758;6.120;2023-03-19T01:53:05;6.67;;;5.83;;
7971;SDS011;4031;49.758;6.120;2023-03-19T01:55:31;7.50;;;5.17;;
7971;SDS011;4031;49.758;6.120;2023-03-19T01:57:58;6.70;;;5.30;;
7971;SDS011;4031;49.758;6.120;2023-03-19T02:00:25;6.90;;;5.00;;
7971;SDS011;4031;49.758;6.120;2023-03-19T02:02:52;6.17;;;5.60;;
7971;SDS011;4031;49.758;6.120;2023-03-19T02:05:23;7.20;;;6.47;;
7971;SDS011;4031;49.758;6.120;2023-03-19T02:07:54;9.80;;;6.63;;
7971;SDS011;4031;49.758;6.120;2023-03-19T02:10:25;6.93;;;5.70;;
7971;SDS011;4031;49.758;6.120;2023-03-19T02:12:52;8.30;;;6.27;;
7971;SDS011;4031;49.758;6.120;2023-03-19T02:15:18;6.40;;;5.60;;
7971;SDS011;4031;49.758;6.120;2023-03-19T02:17:44;6.70;;;5.33;;
7971;SDS011;4031;49.758;6.120;2023-03-19T02:20:30;5.27;;;4.77;;
7971;SDS011;4031;49.758;6.120;2023-03-19T02:26:13;5.40;;;5.00;;
7971;SDS011;4031;49.758;6.120;2023-03-19T02:28:44;12.03;;;5.60;;
7971;SDS011;4031;49.758;6.120;2023-03-19T02:31:12;5.70;;;5.13;;
7971;SDS011;4031;49.758;6.120;2023-03-19T02:33:38;8.60;;;6.30;;
7971;SDS011;4031;49.758;6.120;2023-03-19T02:36:05;8.83;;;5.90;;
7971;SDS011;4031;49.758;6.120;2023-03-19T02:38:39;6.60;;;5.40;;
7971;SDS011;4031;49.758;6.120;2023-03-19T02:41:07;10.70;;;5.10;;
7971;SDS011;4031;49.758;6.120;2023-03-19T02:43:35;6.00;;;4.70;;
7971;SDS011;4031;49.758;6.120;2023-03-19T02:46:03;6.47;;;5.07;;
7971;SDS011;4031;49.758;6.120;2023-03-19T02:48:35;3.97;;;3.63;;
7971;SDS011;4031;49.758;6.120;2023-03-19T02:51:02;4.97;;;3.50;;
7971;SDS011;4031;49.758;6.120;2023-03-19T02:53:28;6.87;;;4.40;;
7971;SDS011;4031;49.758;6.120;2023-03-19T02:55:54;4.63;;;4.20;;
7971;SDS011;4031;49.758;6.120;2023-03-19T02:58:20;3.93;;;3.27;;
7971;SDS011;4031;49.758;6.120;2023-03-19T03:00:45;5.40;;;4.20;;
7971;SDS011;4031;49.758;6.120;2023-03-19T03:03:11;6.67;;;4.63;;
7971;SDS011;4031;49.758;6.120;2023-03-19T03:05:37;5.40;;;4.90;;
7971;SDS011;4031;49.758;6.120;2023-03-19T03:08:03;8.53;;;5.07;;
7971;SDS011;4031;49.758;6.120;2023-03-19T03:10:30;5.47;;;4.20;;
7971;SDS011;4031;49.758;6.120;2023-03-19T03:12:57;4.30;;;3.70;;
7971;SDS011;4031;49.758;6.120;2023-03-19T03:15:23;6.37;;;4.17;;
7971;SDS011;4031;49.758;6.120;2023-03-19T03:17:49;7.17;;;4.90;;
7971;SDS011;4031;49.758;6.120;2023-03-19T03:20:15;5.00;;;4.50;;
7971;SDS011;4031;49.758;6.120;2023-03-19T03:22:42;7.70;;;4.40;;
7971;SDS011;4031;49.758;6.120;2023-03-19T03:25:08;6.77;;;4.70;;
7971;SDS011;4031;49.758;6.120;2023-03-19T03:27:35;5.13;;;4.67;;
7971;SDS011;4031;49.758;6.120;2023-03-19T03:30:02;5.60;;;4.57;;
7971;SDS011;4031;49.758;6.120;2023-03-19T03:32:32;7.50;;;4.60;;
7971;SDS011;4031;49.758;6.120;2023-03-19T03:34:58;4.30;;;3.90;;
7971;SDS011;4031;49.758;6.120;2023-03-19T03:37:24;3.00;;;2.70;;
7971;SDS011;4031;49.758;6.120;2023-03-19T03:39:51;2.37;;;2.17;;
7971;SDS011;4031;49.758;6.120;2023-03-19T03:42:17;2.70;;;2.50;;
7971;SDS011;4031;49.758;6.120;2023-03-19T03:44:43;2.20;;;2.00;;
7971;SDS011;4031;49.758;6.120;2023-03-19T03:47:09;3.37;;;2.30;;
7971;SDS011;4031;49.758;6.120;2023-03-19T03:49:35;3.07;;;2.77;;
7971;SDS011;4031;49.758;6.120;2023-03-19T03:52:01;2.70;;;2.50;;
7971;SDS011;4031;49.758;6.120;2023-03-19T03:54:26;6.20;;;2.73;;
7971;SDS011;4031;49.758;6.120;2023-03-19T03:56:52;1.80;;;1.70;;
7971;SDS011;4031;49.758;6.120;2023-03-19T03:59:18;3.27;;;1.73;;
7971;SDS011;4031;49.758;6.120;2023-03-19T04:01:44;1.83;;;1.73;;
7971;SDS011;4031;49.758;6.120;2023-03-19T04:04:10;2.43;;;2.23;;
7971;SDS011;4031;49.758;6.120;2023-03-19T04:06:35;2.30;;;2.10;;
7971;SDS011;4031;49.758;6.120;2023-03-19T04:09:01;2.30;;;2.20;;
7971;SDS011;4031;49.758;6.120;2023-03-19T04:11:27;2.73;;;1.70;;
7971;SDS011;4031;49.758;6.120;2023-03-19T04:13:54;2.27;;;1.87;;
7971;SDS011;4031;49.758;6.120;2023-03-19T04:16:21;2.53;;;2.10;;
7971;SDS011;4031;49.758;6.120;2023-03-19T04:18:48;2.33;;;2.07;;
7971;SDS011;4031;49.758;6.120;2023-03-19T04:21:14;1.90;;;1.50;;
7971;SDS011;4031;49.758;6.120;2023-03-19T04:23:39;3.03;;;1.50;;
7971;SDS011;4031;49.758;6.120;2023-03-19T04:26:05;1.90;;;1.73;;
7971;SDS011;4031;49.758;6.120;2023-03-19T04:28:32;2.70;;;1.90;;
7971;SDS011;4031;49.758;6.120;2023-03-19T04:31:03;3.30;;;1.80;;
7971;SDS011;4031;49.758;6.120;2023-03-19T04:33:31;3.17;;;2.27;;
7971;SDS011;4031;49.758;6.120;2023-03-19T04:35:57;1.90;;;1.70;;
7971;SDS011;4031;49.758;6.120;2023-03-19T04:38:24;1.77;;;1.67;;
7971;SDS011;4031;49.758;6.120;2023-03-19T04:40:50;2.60;;;1.93;;
7971;SDS011;4031;49.758;6.120;2023-03-19T04:43:16;3.63;;;2.20;;
7971;SDS011;4031;49.758;6.120;2023-03-19T04:45:42;4.17;;;2.10;;
7971;SDS011;4031;49.758;6.120;2023-03-19T04:48:08;2.20;;;1.90;;
7971;SDS011;4031;49.758;6.120;2023-03-19T04:50:34;5.10;;;2.30;;
7971;SDS011;4031;49.758;6.120;2023-03-19T04:53:00;1.97;;;1.87;;
7971;SDS011;4031;49.758;6.120;2023-03-19T04:55:26;3.70;;;1.80;;
7971;SDS011;4031;49.758;6.120;2023-03-19T04:57:51;2.23;;;2.03;;
7971;SDS011;4031;49.758;6.120;2023-03-19T05:00:17;3.60;;;2.17;;
7971;SDS011;4031;49.758;6.120;2023-03-19T05:02:44;2.10;;;1.93;;
7971;SDS011;4031;49.758;6.120;2023-03-19T05:05:11;4.50;;;2.47;;
7971;SDS011;4031;49.758;6.120;2023-03-19T05:07:37;2.77;;;1.40;;
7971;SDS011;4031;49.758;6.120;2023-03-19T05:10:04;1.93;;;1.77;;
7971;SDS011;4031;49.758;6.120;2023-03-19T05:12:31;2.20;;;1.70;;
7971;SDS011;4031;49.758;6.120;2023-03-19T05:14:57;1.47;;;1.37;;
7971;SDS011;4031;49.758;6.120;2023-03-19T05:17:23;1.63;;;1.53;;
7971;SDS011;4031;49.758;6.120;2023-03-19T05:19:49;1.53;;;1.43;;
7971;SDS011;4031;49.758;6.120;2023-03-19T05:22:16;3.23;;;1.93;;
7971;SDS011;4031;49.758;6.120;2023-03-19T05:24:43;1.90;;;1.33;;
7971;SDS011;4031;49.758;6.120;2023-03-19T05:27:10;2.10;;;2.00;;
7971;SDS011;4031;49.758;6.120;2023-03-19T05:29:36;2.10;;;1.93;;
7971;SDS011;4031;49.758;6.120;2023-03-19T05:32:02;4.83;;;2.43;;
7971;SDS011;4031;49.758;6.120;2023-03-19T05:34:29;2.17;;;2.00;;
7971;SDS011;4031;49.758;6.120;2023-03-19T05:36:55;1.83;;;1.63;;
7971;SDS011;4031;49.758;6.120;2023-03-19T05:39:21;2.30;;;1.97;;
7971;SDS011;4031;49.758;6.120;2023-03-19T05:41:47;2.23;;;2.00;;
7971;SDS011;4031;49.758;6.120;2023-03-19T05:44:13;2.37;;;2.17;;
7971;SDS011;4031;49.758;6.120;2023-03-19T05:46:40;3.10;;;2.70;;
7971;SDS011;4031;49.758;6.120;2023-03-19T05:49:07;2.40;;;2.20;;
7971;SDS011;4031;49.758;6.120;2023-03-19T05:51:33;2.50;;;2.20;;
7971;SDS011;4031;49.758;6.120;2023-03-19T05:53:59;1.87;;;1.77;;
7971;SDS011;4031;49.758;6.120;2023-03-19T05:56:26;2.53;;;2.33;;
7971;SDS011;4031;49.758;6.120;2023-03-19T05:58:53;2.27;;;2.07;;
7971;SDS011;4031;49.758;6.120;2023-03-19T06:01:19;2.70;;;2.50;;
7971;SDS011;4031;49.758;6.120;2023-03-19T06:03:45;3.50;;;2.47;;
7971;SDS011;4031;49.758;6.120;2023-03-19T06:06:11;2.50;;;2.30;;
7971;SDS011;4031;49.758;6.120;2023-03-19T06:08:37;3.10;;;2.60;;
7971;SDS011;4031;49.758;6.120;2023-03-19T06:11:02;2.77;;;2.40;;
7971;SDS011;4031;49.758;6.120;2023-03-19T06:13:29;3.73;;;2.30;;
7971;SDS011;4031;49.758;6.120;2023-03-19T06:15:55;3.13;;;2.63;;
7971;SDS011;4031;49.758;6.120;2023-03-19T06:18:21;7.57;;;2.83;;
7971;SDS011;4031;49.758;6.120;2023-03-19T06:20:47;3.73;;;2.83;;
7971;SDS011;4031;49.758;6.120;2023-03-19T06:23:12;3.13;;;2.83;;
7971;SDS011;4031;49.758;6.120;2023-03-19T06:25:38;3.37;;;2.80;;
7971;SDS011;4031;49.758;6.120;2023-03-19T06:28:04;2.40;;;2.20;;
7971;SDS011;4031;49.758;6.120;2023-03-19T06:30:30;2.70;;;2.50;;
7971;SDS011;4031;49.758;6.120;2023-03-19T06:32:57;3.80;;;3.47;;
7971;SDS011;4031;49.758;6.120;2023-03-19T06:35:22;3.00;;;2.70;;
7971;SDS011;4031;49.758;6.120;2023-03-19T06:37:48;3.30;;;3.00;;
7971;SDS011;4031;49.758;6.120;2023-03-19T06:40:14;2.93;;;2.70;;
7971;SDS011;4031;49.758;6.120;2023-03-19T06:42:43;4.10;;;3.30;;
7971;SDS011;4031;49.758;6.120;2023-03-19T06:45:13;2.63;;;2.43;;
7971;SDS011;4031;49.758;6.120;2023-03-19T06:47:40;2.40;;;2.20;;
7971;SDS011;4031;49.758;6.120;2023-03-19T06:50:07;3.60;;;3.20;;
7971;SDS011;4031;49.758;6.120;2023-03-19T06:52:35;3.47;;;2.97;;
7971;SDS011;4031;49.758;6.120;2023-03-19T06:55:00;4.23;;;3.23;;
7971;SDS011;4031;49.758;6.120;2023-03-19T06:57:26;2.83;;;2.53;;
7971;SDS011;4031;49.758;6.120;2023-03-19T06:59:52;2.80;;;2.60;;
7971;SDS011;4031;49.758;6.120;2023-03-19T07:02:18;4.20;;;3.80;;
7971;SDS011;4031;49.758;6.120;2023-03-19T07:04:44;3.60;;;3.23;;
7971;SDS011;4031;49.758;6.120;2023-03-19T07:07:10;3.73;;;3.17;;
7971;SDS011;4031;49.758;6.120;2023-03-19T07:09:36;3.13;;;2.77;;
7971;SDS011;4031;49.758;6.120;2023-03-19T07:12:01;3.67;;;3.13;;
7971;SDS011;4031;49.758;6.120;2023-03-19T07:14:27;3.77;;;3.37;;
7971;SDS011;4031;49.758;6.120;2023-03-19T07:16:53;3.40;;;3.10;;
7971;SDS011;4031;49.758;6.120;2023-03-19T07:19:19;3.67;;;3.37;;
7971;SDS011;4031;49.758;6.120;2023-03-19T07:21:45;3.40;;;2.80;;
7971;SDS011;4031;49.758;6.120;2023-03-19T07:24:10;2.83;;;2.63;;
7971;SDS011;4031;49.758;6.120;2023-03-19T07:26:36;3.80;;;3.20;;
7971;SDS011;4031;49.758;6.120;2023-03-19T07:29:02;4.67;;;2.77;;
7971;SDS011;4031;49.758;6.120;2023-03-19T07:31:28;6.27;;;3.40;;
7971;SDS011;4031;49.758;6.120;2023-03-19T07:33:53;4.07;;;3.10;;
7971;SDS011;4031;49.758;6.120;2023-03-19T07:36:19;4.00;;;2.53;;
7971;SDS011;4031;49.758;6.120;2023-03-19T07:38:45;3.13;;;2.83;;
7971;SDS011;4031;49.758;6.120;2023-03-19T07:41:11;3.07;;;2.37;;
7971;SDS011;4031;49.758;6.120;2023-03-19T07:43:37;5.83;;;2.90;;
7971;SDS011;4031;49.758;6.120;2023-03-19T07:46:03;2.83;;;2.63;;
7971;SDS011;4031;49.758;6.120;2023-03-19T07:48:28;3.40;;;2.70;;
7971;SDS011;4031;49.758;6.120;2023-03-19T07:50:54;2.33;;;2.13;;
7971;SDS011;4031;49.758;6.120;2023-03-19T07:53:20;3.27;;;2.73;;
7971;SDS011;4031;49.758;6.120;2023-03-19T07:55:46;5.50;;;3.37;;
7971;SDS011;4031;49.758;6.120;2023-03-19T07:58:12;2.83;;;2.60;;
7971;SDS011;4031;49.758;6.120;2023-03-19T08:00:38;3.13;;;2.87;;
7971;SDS011;4031;49.758;6.120;2023-03-19T08:03:04;3.40;;;2.30;;
7971;SDS011;4031;49.758;6.120;2023-03-19T08:05:30;3.17;;;2.87;;
7971;SDS011;4031;49.758;6.120;2023-03-19T08:07:55;2.87;;;2.67;;
7971;SDS011;4031;49.758;6.120;2023-03-19T08:10:21;2.73;;;2.50;;
7971;SDS011;4031;49.758;6.120;2023-03-19T08:12:47;2.93;;;2.73;;
7971;SDS011;4031;49.758;6.120;2023-03-19T08:15:13;2.53;;;2.33;;
7971;SDS011;4031;49.758;6.120;2023-03-19T08:17:39;3.20;;;2.90;;
7971;SDS011;4031;49.758;6.120;2023-03-19T08:20:08;3.10;;;2.87;;
7971;SDS011;4031;49.758;6.120;2023-03-19T08:22:37;3.07;;;2.60;;
7971;SDS011;4031;49.758;6.120;2023-03-19T08:25:05;3.33;;;3.03;;
7971;SDS011;4031;49.758;6.120;2023-03-19T08:27:32;2.90;;;2.70;;
7971;SDS011;4031;49.758;6.120;2023-03-19T08:29:59;3.97;;;2.93;;
7971;SDS011;4031;49.758;6.120;2023-03-19T08:32:30;3.20;;;2.73;;
7971;SDS011;4031;49.758;6.120;2023-03-19T08:34:56;3.30;;;2.70;;
7971;SDS011;4031;49.758;6.120;2023-03-19T08:37:21;3.37;;;3.10;;
7971;SDS011;4031;49.758;6.120;2023-03-19T08:39:50;2.60;;;2.40;;
7971;SDS011;4031;49.758;6.120;2023-03-19T08:42:16;2.07;;;1.97;;
7971;SDS011;4031;49.758;6.120;2023-03-19T08:44:43;3.47;;;2.60;;
7971;SDS011;4031;49.758;6.120;2023-03-19T08:47:09;1.50;;;1.40;;
7971;SDS011;4031;49.758;6.120;2023-03-19T08:49:36;3.10;;;2.80;;
7971;SDS011;4031;49.758;6.120;2023-03-19T08:52:02;3.30;;;2.60;;
7971;SDS011;4031;49.758;6.120;2023-03-19T08:54:29;3.07;;;2.77;;
7971;SDS011;4031;49.758;6.120;2023-03-19T08:56:55;3.20;;;3.00;;
7971;SDS011;4031;49.758;6.120;2023-03-19T08:59:21;3.30;;;3.00;;
7971;SDS011;4031;49.758;6.120;2023-03-19T09:01:52;2.87;;;2.43;;
7971;SDS011;4031;49.758;6.120;2023-03-19T09:04:19;2.80;;;2.60;;
7971;SDS011;4031;49.758;6.120;2023-03-19T09:06:46;2.90;;;2.57;;
7971;SDS011;4031;49.758;6.120;2023-03-19T09:09:15;5.43;;;3.50;;
7971;SDS011;4031;49.758;6.120;2023-03-19T09:11:46;3.30;;;2.53;;
7971;SDS011;4031;49.758;6.120;2023-03-19T09:14:12;3.47;;;3.17;;
7971;SDS011;4031;49.758;6.120;2023-03-19T09:16:40;3.70;;;3.20;;
7971;SDS011;4031;49.758;6.120;2023-03-19T09:19:07;2.67;;;2.47;;
7971;SDS011;4031;49.758;6.120;2023-03-19T09:21:33;4.37;;;2.70;;
7971;SDS011;4031;49.758;6.120;2023-03-19T09:24:00;4.50;;;3.20;;
7971;SDS011;4031;49.758;6.120;2023-03-19T09:26:27;4.30;;;2.87;;
7971;SDS011;4031;49.758;6.120;2023-03-19T09:28:53;2.60;;;2.40;;
7971;SDS011;4031;49.758;6.120;2023-03-19T09:31:19;2.93;;;2.70;;
7971;SDS011;4031;49.758;6.120;2023-03-19T09:33:45;3.33;;;2.93;;
7971;SDS011;4031;49.758;6.120;2023-03-19T09:36:11;3.83;;;3.43;;
7971;SDS011;4031;49.758;6.120;2023-03-19T09:38:37;2.70;;;2.50;;
7971;SDS011;4031;49.758;6.120;2023-03-19T09:43:38;2.80;;;2.60;;
7971;SDS011;4031;49.758;6.120;2023-03-19T09:46:14;2.93;;;2.47;;
7971;SDS011;4031;49.758;6.120;2023-03-19T09:48:47;7.30;;;3.17;;
7971;SDS011;4031;49.758;6.120;2023-03-19T09:51:24;3.20;;;2.93;;
7971;SDS011;4031;49.758;6.120;2023-03-19T09:56:25;3.57;;;3.10;;
7971;SDS011;4031;49.758;6.120;2023-03-19T09:58:51;2.93;;;2.70;;
7971;SDS011;4031;49.758;6.120;2023-03-19T10:01:21;5.97;;;3.07;;
7971;SDS011;4031;49.758;6.120;2023-03-19T10:06:37;4.53;;;4.10;;
7971;SDS011;4031;49.758;6.120;2023-03-19T10:09:22;4.30;;;3.27;;
7971;SDS011;4031;49.758;6.120;2023-03-19T10:12:13;6.43;;;3.80;;
7971;SDS011;4031;49.758;6.120;2023-03-19T10:17:56;6.47;;;4.13;;
7971;SDS011;4031;49.758;6.120;2023-03-19T10:20:45;8.97;;;4.40;;
7971;SDS011;4031;49.758;6.120;2023-03-19T10:23:43;7.30;;;4.67;;
7971;SDS011;4031;49.758;6.120;2023-03-19T10:26:40;4.90;;;4.07;;
7971;SDS011;4031;49.758;6.120;2023-03-19T10:29:10;5.17;;;4.70;;
7971;SDS011;4031;49.758;6.120;2023-03-19T10:39:50;5.13;;;3.70;;
7971;SDS011;4031;49.758;6.120;2023-03-19T10:45:42;3.60;;;3.30;;
7971;SDS011;4031;49.758;6.120;2023-03-19T10:48:11;2.93;;;2.80;;
7971;SDS011;4031;49.758;6.120;2023-03-19T10:50:51;4.47;;;3.10;;
7971;SDS011;4031;49.758;6.120;2023-03-19T10:58:29;3.87;;;3.10;;
7971;SDS011;4031;49.758;6.120;2023-03-19T11:01:07;2.23;;;2.10;;
7971;SDS011;4031;49.758;6.120;2023-03-19T11:06:31;4.13;;;2.13;;
7971;SDS011;4031;49.758;6.120;2023-03-19T11:11:48;2.30;;;1.80;;
7971;SDS011;4031;49.758;6.120;2023-03-19T11:14:30;1.80;;;1.70;;
7971;SDS011;4031;49.758;6.120;2023-03-19T11:17:05;2.17;;;1.80;;
7971;SDS011;4031;49.758;6.120;2023-03-19T11:19:48;2.20;;;2.00;;
7971;SDS011;4031;49.758;6.120;2023-03-19T11:24:55;1.93;;;1.80;;
7971;SDS011;4031;49.758;6.120;2023-03-19T11:27:32;2.13;;;2.03;;
7971;SDS011;4031;49.758;6.120;2023-03-19T11:30:00;2.80;;;2.13;;
7971;SDS011;4031;49.758;6.120;2023-03-19T11:35:50;2.57;;;2.00;;
7971;SDS011;4031;49.758;6.120;2023-03-19T11:38:33;4.10;;;2.27;;
7971;SDS011;4031;49.758;6.120;2023-03-19T11:44:32;1.80;;;1.70;;
7971;SDS011;4031;49.758;6.120;2023-03-19T12:05:33;2.00;;;1.90;;
7971;SDS011;4031;49.758;6.120;2023-03-19T12:08:26;1.93;;;1.83;;
7971;SDS011;4031;49.758;6.120;2023-03-19T12:13:50;1.33;;;1.23;;
7971;SDS011;4031;49.758;6.120;2023-03-19T12:16:54;2.13;;;1.30;;
7971;SDS011;4031;49.758;6.120;2023-03-19T12:19:47;1.80;;;1.70;;
7971;SDS011;4031;49.758;6.120;2023-03-19T12:22:47;2.67;;;1.97;;
7971;SDS011;4031;49.758;6.120;2023-03-19T12:25:39;1.80;;;1.67;;
7971;SDS011;4031;49.758;6.120;2023-03-19T12:28:16;2.00;;;1.90;;
7971;SDS011;4031;49.758;6.120;2023-03-19T12:36:34;2.00;;;1.83;;
7971;SDS011;4031;49.758;6.120;2023-03-19T12:39:10;1.80;;;1.53;;
7971;SDS011;4031;49.758;6.120;2023-03-19T12:41:41;1.57;;;1.47;;
7971;SDS011;4031;49.758;6.120;2023-03-19T12:47:04;2.20;;;1.87;;
7971;SDS011;4031;49.758;6.120;2023-03-19T12:52:19;1.17;;;1.17;;
7971;SDS011;4031;49.758;6.120;2023-03-19T12:54:58;2.30;;;1.60;;
7971;SDS011;4031;49.758;6.120;2023-03-19T13:00:34;1.70;;;1.60;;
7971;SDS011;4031;49.758;6.120;2023-03-19T13:11:17;1.93;;;1.47;;
7971;SDS011;4031;49.758;6.120;2023-03-19T13:14:06;1.43;;;1.20;;
7971;SDS011;4031;49.758;6.120;2023-03-19T13:19:46;1.67;;;0.93;;
7971;SDS011;4031;49.758;6.120;2023-03-19T13:22:22;2.10;;;1.50;;
7971;SDS011;4031;49.758;6.120;2023-03-19T13:24:52;2.50;;;1.40;;
7971;SDS011;4031;49.758;6.120;2023-03-19T13:27:28;1.63;;;1.37;;
7971;SDS011;4031;49.758;6.120;2023-03-19T13:38:18;2.00;;;1.53;;
7971;SDS011;4031;49.758;6.120;2023-03-19T13:41:05;2.50;;;1.47;;
7971;SDS011;4031;49.758;6.120;2023-03-19T13:43:56;2.80;;;1.60;;
7971;SDS011;4031;49.758;6.120;2023-03-19T13:46:28;1.60;;;1.50;;
7971;SDS011;4031;49.758;6.120;2023-03-19T13:49:02;1.83;;;1.63;;
7971;SDS011;4031;49.758;6.120;2023-03-19T13:51:55;1.30;;;1.13;;
7971;SDS011;4031;49.758;6.120;2023-03-19T13:54:38;2.60;;;1.80;;
7971;SDS011;4031;49.758;6.120;2023-03-19T13:59:43;1.77;;;1.20;;
7971;SDS011;4031;49.758;6.120;2023-03-19T14:07:35;1.73;;;1.60;;
7971;SDS011;4031;49.758;6.120;2023-03-19T14:10:07;3.33;;;1.83;;
7971;SDS011;4031;49.758;6.120;2023-03-19T14:12:39;2.53;;;1.70;;
7971;SDS011;4031;49.758;6.120;2023-03-19T14:17:57;1.10;;;1.00;;
7971;SDS011;4031;49.758;6.120;2023-03-19T14:20:24;0.97;;;0.70;;
7971;SDS011;4031;49.758;6.120;2023-03-19T14:26:09;2.03;;;1.33;;
7971;SDS011;4031;49.758;6.120;2023-03-19T14:31:31;0.87;;;0.70;;
7971;SDS011;4031;49.758;6.120;2023-03-19T14:39:59;0.80;;;0.80;;
7971;SDS011;4031;49.758;6.120;2023-03-19T14:46:03;0.60;;;0.60;;
7971;SDS011;4031;49.758;6.120;2023-03-19T14:51:57;0.80;;;0.70;;
7971;SDS011;4031;49.758;6.120;2023-03-19T14:54:47;2.80;;;1.03;;
7971;SDS011;4031;49.758;6.120;2023-03-19T14:57:29;1.47;;;0.90;;
7971;SDS011;4031;49.758;6.120;2023-03-19T14:59:57;0.80;;;0.80;;
7971;SDS011;4031;49.758;6.120;2023-03-19T15:02:31;0.73;;;0.70;;
7971;SDS011;4031;49.758;6.120;2023-03-19T15:05:08;2.60;;;1.27;;
7971;SDS011;4031;49.758;6.120;2023-03-19T15:07:43;1.33;;;1.20;;
7971;SDS011;4031;49.758;6.120;2023-03-19T15:10:19;1.50;;;1.40;;
7971;SDS011;4031;49.758;6.120;2023-03-19T15:18:49;0.93;;;0.50;;
7971;SDS011;4031;49.758;6.120;2023-03-19T15:21:15;1.10;;;0.70;;
7971;SDS011;4031;49.758;6.120;2023-03-19T15:23:43;0.90;;;0.80;;
7971;SDS011;4031;49.758;6.120;2023-03-19T15:26:10;0.83;;;0.73;;
7971;SDS011;4031;49.758;6.120;2023-03-19T15:28:46;2.33;;;0.80;;
7971;SDS011;4031;49.758;6.120;2023-03-19T15:31:14;2.10;;;0.60;;
7971;SDS011;4031;49.758;6.120;2023-03-19T15:33:41;0.77;;;0.63;;
7971;SDS011;4031;49.758;6.120;2023-03-19T15:38:47;0.93;;;0.50;;
7971;SDS011;4031;49.758;6.120;2023-03-19T15:41:19;0.70;;;0.40;;
7971;SDS011;4031;49.758;6.120;2023-03-19T15:43:49;0.50;;;0.30;;
7971;SDS011;4031;49.758;6.120;2023-03-19T15:46:17;0.80;;;0.50;;
7971;SDS011;4031;49.758;6.120;2023-03-19T15:51:22;0.80;;;0.50;;
7971;SDS011;4031;49.758;6.120;2023-03-19T15:53:50;0.60;;;0.40;;
7971;SDS011;4031;49.758;6.120;2023-03-19T15:56:16;0.50;;;0.40;;
7971;SDS011;4031;49.758;6.120;2023-03-19T15:58:45;1.50;;;0.60;;
7971;SDS011;4031;49.758;6.120;2023-03-19T16:01:14;1.13;;;0.43;;
7971;SDS011;4031;49.758;6.120;2023-03-19T16:03:43;1.37;;;0.60;;
7971;SDS011;4031;49.758;6.120;2023-03-19T16:06:20;0.50;;;0.40;;
7971;SDS011;4031;49.758;6.120;2023-03-19T16:08:50;0.70;;;0.57;;
7971;SDS011;4031;49.758;6.120;2023-03-19T16:14:09;0.60;;;0.60;;
7971;SDS011;4031;49.758;6.120;2023-03-19T16:17:09;0.87;;;0.40;;
7971;SDS011;4031;49.758;6.120;2023-03-19T16:19:47;0.50;;;0.40;;
7971;SDS011;4031;49.758;6.120;2023-03-19T16:22:24;0.50;;;0.40;;
7971;SDS011;4031;49.758;6.120;2023-03-19T16:24:56;0.73;;;0.50;;
7971;SDS011;4031;49.758;6.120;2023-03-19T16:27:35;0.70;;;0.60;;
7971;SDS011;4031;49.758;6.120;2023-03-19T16:30:03;1.70;;;0.50;;
7971;SDS011;4031;49.758;6.120;2023-03-19T16:32:58;0.80;;;0.50;;
7971;SDS011;4031;49.758;6.120;2023-03-19T16:35:27;0.50;;;0.40;;
7971;SDS011;4031;49.758;6.120;2023-03-19T16:40:49;0.60;;;0.40;;
7971;SDS011;4031;49.758;6.120;2023-03-19T16:43:43;0.70;;;0.50;;
7971;SDS011;4031;49.758;6.120;2023-03-19T16:46:11;1.03;;;0.50;;
7971;SDS011;4031;49.758;6.120;2023-03-19T16:48:40;1.23;;;0.80;;
7971;SDS011;4031;49.758;6.120;2023-03-19T16:51:14;0.80;;;0.50;;
7971;SDS011;4031;49.758;6.120;2023-03-19T16:53:42;1.10;;;0.60;;
7971;SDS011;4031;49.758;6.120;2023-03-19T16:56:09;0.60;;;0.60;;
7971;SDS011;4031;49.758;6.120;2023-03-19T16:58:38;1.00;;;0.60;;
7971;SDS011;4031;49.758;6.120;2023-03-19T17:01:17;0.50;;;0.50;;
7971;SDS011;4031;49.758;6.120;2023-03-19T17:03:46;1.10;;;0.50;;
7971;SDS011;4031;49.758;6.120;2023-03-19T17:06:14;0.50;;;0.40;;
7971;SDS011;4031;49.758;6.120;2023-03-19T17:08:40;0.70;;;0.57;;
7971;SDS011;4031;49.758;6.120;2023-03-19T17:11:49;0.53;;;0.47;;
7971;SDS011;4031;49.758;6.120;2023-03-19T17:14:00;0.67;;;0.50;;
7971;SDS011;4031;49.758;6.120;2023-03-19T17:16:27;0.53;;;0.50;;
7971;SDS011;4031;49.758;6.120;2023-03-19T17:18:53;0.50;;;0.50;;
7971;SDS011;4031;49.758;6.120;2023-03-19T17:21:21;0.60;;;0.50;;
7971;SDS011;4031;49.758;6.120;2023-03-19T17:23:51;0.50;;;0.43;;
7971;SDS011;4031;49.758;6.120;2023-03-19T17:26:23;0.60;;;0.40;;
7971;SDS011;4031;49.758;6.120;2023-03-19T17:28:52;0.70;;;0.50;;
7971;SDS011;4031;49.758;6.120;2023-03-19T17:33:57;1.07;;;0.70;;
7971;SDS011;4031;49.758;6.120;2023-03-19T17:36:28;1.20;;;1.10;;
7971;SDS011;4031;49.758;6.120;2023-03-19T17:38:54;2.13;;;1.50;;
7971;SDS011;4031;49.758;6.120;2023-03-19T17:41:21;1.73;;;1.63;;
7971;SDS011;4031;49.758;6.120;2023-03-19T17:43:46;1.47;;;1.30;;
7971;SDS011;4031;49.758;6.120;2023-03-19T17:46:20;1.90;;;1.27;;
7971;SDS011;4031;49.758;6.120;2023-03-19T17:48:48;1.73;;;1.53;;
7971;SDS011;4031;49.758;6.120;2023-03-19T17:51:15;8.33;;;1.97;;
7971;SDS011;4031;49.758;6.120;2023-03-19T17:53:43;3.13;;;1.87;;
7971;SDS011;4031;49.758;6.120;2023-03-19T17:56:17;1.70;;;1.60;;
7971;SDS011;4031;49.758;6.120;2023-03-19T17:58:44;4.20;;;2.70;;
7971;SDS011;4031;49.758;6.120;2023-03-19T18:01:21;2.00;;;1.80;;